createdAt,value
2019-05-12T00:00:09.082Z,96724.22
2019-05-12T00:02:39.653Z,96727.86
2019-05-12T00:05:08.801Z,96730.87
2019-05-12T00:07:38.188Z,96726.50
2019-05-12T00:10:08.637Z,96727.83
2019-05-12T00:12:38.478Z,96727.00
2019-05-12T00:15:08.359Z,96725.84
2019-05-12T00:17:38.817Z,96725.14
2019-05-12T00:20:08.526Z,96722.02
2019-05-12T00:22:41.297Z,96729.88
2019-05-12T00:25:09.830Z,96735.74
2019-05-12T00:27:38.861Z,96724.75
2019-05-12T00:30:10.093Z,96720.06
2019-05-12T00:32:38.716Z,96731.88
2019-05-12T00:35:08.018Z,96731.27
2019-05-12T00:37:38.125Z,96727.34
2019-05-12T00:40:08.842Z,96728.92
2019-05-12T00:42:38.058Z,96726.63
2019-05-12T00:45:08.140Z,96731.38
2019-05-12T00:47:38.894Z,96731.48
2019-05-12T00:50:08.053Z,96733.14
2019-05-12T00:52:38.509Z,96744.33
2019-05-12T00:55:08.114Z,96741.73
2019-05-12T00:57:38.271Z,96745.77
2019-05-12T01:00:10.401Z,96751.26
2019-05-12T01:02:38.920Z,96745.57
2019-05-12T01:05:08.741Z,96744.55
2019-05-12T01:07:38.239Z,96745.06
2019-05-12T01:10:08.862Z,96742.56
2019-05-12T01:12:38.149Z,96744.33
2019-05-12T01:15:08.355Z,96750.43
2019-05-12T01:17:40.133Z,96756.41
2019-05-12T01:20:08.824Z,96760.50
2019-05-12T01:22:38.286Z,96760.63
2019-05-12T01:25:08.617Z,96761.81
2019-05-12T01:27:38.197Z,96766.73
2019-05-12T01:30:08.777Z,96775.94
2019-05-12T01:32:39.034Z,96772.55
2019-05-12T01:35:09.734Z,96773.92
2019-05-12T01:37:38.555Z,96783.06
2019-05-12T01:40:08.848Z,96780.92
2019-05-12T01:42:38.339Z,96781.24
2019-05-12T01:45:09.248Z,96793.23
2019-05-12T01:47:38.368Z,96805.58
2019-05-12T01:50:09.041Z,96812.80
2019-05-12T01:52:38.683Z,96808.77
2019-05-12T01:55:08.315Z,96819.42
2019-05-12T01:57:38.674Z,96817.75
2019-05-12T02:00:12.373Z,96821.20
2019-05-12T02:02:40.921Z,96829.97
2019-05-12T02:05:10.274Z,96827.06
2019-05-12T02:07:48.005Z,96831.31
2019-05-12T02:10:17.992Z,96827.98
2019-05-12T02:12:48.890Z,96832.53
2019-05-12T02:15:18.450Z,96837.39
2019-05-12T02:17:48.129Z,96841.35
2019-05-12T02:20:18.071Z,96838.73
2019-05-12T02:22:47.717Z,96845.70
2019-05-12T02:25:18.452Z,96839.59
2019-05-12T02:27:47.653Z,96846.12
2019-05-12T02:30:19.226Z,96849.00
2019-05-12T02:32:52.375Z,96859.04
2019-05-12T02:35:17.242Z,96855.14
2019-05-12T02:37:45.746Z,96868.57
2019-05-12T02:40:15.193Z,96871.06
2019-05-12T02:42:46.252Z,96866.08
2019-05-12T02:45:15.402Z,96865.27
2019-05-12T02:47:45.613Z,96879.16
2019-05-12T02:50:17.502Z,96884.44
2019-05-12T02:52:46.705Z,96883.09
2019-05-12T02:55:15.298Z,96886.00
2019-05-12T02:57:45.251Z,96884.37
2019-05-12T03:00:16.009Z,96889.55
2019-05-12T03:02:45.857Z,96889.07
2019-05-12T03:05:14.972Z,96890.80
2019-05-12T03:07:44.919Z,96882.83
2019-05-12T03:10:14.701Z,96876.34
2019-05-12T03:12:44.929Z,96881.23
2019-05-12T03:15:15.182Z,96904.72
2019-05-12T03:17:44.378Z,96898.83
2019-05-12T03:20:15.408Z,96904.30
2019-05-12T03:22:44.804Z,96911.37
2019-05-12T03:25:20.805Z,96917.06
2019-05-12T03:27:44.531Z,96918.59
2019-05-12T03:30:18.972Z,96917.58
2019-05-12T03:32:47.191Z,96931.69
2019-05-12T03:35:17.756Z,96948.33
2019-05-12T03:37:45.219Z,96954.22
2019-05-12T03:40:14.542Z,96949.45
2019-05-12T03:42:44.453Z,96950.89
2019-05-12T03:45:15.014Z,96968.72
2019-05-12T03:47:45.518Z,96977.61
2019-05-12T03:50:14.770Z,96972.06
2019-05-12T03:52:44.939Z,96974.52
2019-05-12T03:55:30.962Z,96989.23
2019-05-12T03:57:44.992Z,96999.18
2019-05-12T04:00:15.967Z,97003.86
2019-05-12T04:02:45.351Z,97008.08
2019-05-12T04:05:15.429Z,97015.36
2019-05-12T04:07:45.154Z,97014.34
2019-05-12T04:10:15.542Z,97013.70
2019-05-12T04:12:45.035Z,97021.25
2019-05-12T04:15:15.203Z,97019.98
2019-05-12T04:17:45.555Z,97028.74
2019-05-12T04:20:15.318Z,97031.80
2019-05-12T04:22:44.791Z,97026.76
2019-05-12T04:25:14.614Z,97019.16
2019-05-12T04:27:45.073Z,97024.66
2019-05-12T04:30:14.633Z,97019.39
2019-05-12T04:32:45.250Z,97023.13
2019-05-12T04:35:14.962Z,97014.34
2019-05-12T04:37:44.927Z,97015.64
2019-05-12T04:40:14.790Z,97017.11
2019-05-12T04:42:45.251Z,97015.17
2019-05-12T04:45:15.526Z,97016.38
2019-05-12T04:47:45.035Z,97022.27
2019-05-12T04:50:15.629Z,97017.86
2019-05-12T04:52:44.776Z,97027.59
2019-05-12T04:55:15.085Z,97032.45
2019-05-12T04:57:45.117Z,97035.97
2019-05-12T05:00:15.708Z,97037.83
2019-05-12T05:02:45.659Z,97037.23
2019-05-12T05:05:14.745Z,97033.33
2019-05-12T05:07:44.763Z,97032.50
2019-05-12T05:10:14.603Z,97038.20
2019-05-12T05:12:44.951Z,97038.52
2019-05-12T05:15:14.647Z,97042.73
2019-05-12T05:17:44.137Z,97040.23
2019-05-12T05:20:13.579Z,97036.99
2019-05-12T05:22:44.042Z,97033.93
2019-05-12T05:25:14.424Z,97038.52
2019-05-12T05:27:44.426Z,97037.41
2019-05-12T05:30:13.913Z,97042.33
2019-05-12T05:32:44.461Z,97044.06
2019-05-12T05:35:13.752Z,97051.53
2019-05-12T05:37:44.280Z,97049.48
2019-05-12T05:40:14.176Z,97064.18
2019-05-12T05:42:43.989Z,97065.15
2019-05-12T05:45:21.419Z,97060.80
2019-05-12T05:47:44.331Z,97068.16
2019-05-12T05:50:13.629Z,97074.28
2019-05-12T05:52:43.796Z,97083.69
2019-05-12T05:55:19.942Z,97080.63
2019-05-12T05:57:44.372Z,97087.50
2019-05-12T06:00:22.775Z,97095.38
2019-05-12T06:02:44.277Z,97105.70
2019-05-12T06:05:14.467Z,97099.30
2019-05-12T06:07:44.323Z,97103.70
2019-05-12T06:10:14.472Z,97098.66
2019-05-12T06:12:48.576Z,97096.02
2019-05-12T06:15:13.689Z,97101.94
2019-05-12T06:17:43.875Z,97095.08
2019-05-12T06:20:13.479Z,97090.54
2019-05-12T06:22:43.792Z,97094.81
2019-05-12T06:25:16.179Z,97098.14
2019-05-12T06:27:44.332Z,97109.86
2019-05-12T06:30:14.744Z,97106.95
2019-05-12T06:32:50.054Z,97107.93
2019-05-12T06:35:15.102Z,97114.89
2019-05-12T06:37:44.376Z,97104.46
2019-05-12T06:40:14.071Z,97116.55
2019-05-12T06:42:43.561Z,97110.16
2019-05-12T06:45:14.110Z,97111.83
2019-05-12T06:47:45.286Z,97118.22
2019-05-12T06:50:14.577Z,97125.45
2019-05-12T06:52:46.898Z,97119.56
2019-05-12T06:55:14.694Z,97125.27
2019-05-12T06:57:45.910Z,97133.66
2019-05-12T07:00:14.667Z,97128.47
2019-05-12T07:02:51.645Z,97134.67
2019-05-12T07:05:14.585Z,97136.34
2019-05-12T07:07:46.134Z,97133.57
2019-05-12T07:10:35.079Z,97141.39
2019-05-12T07:12:58.247Z,97131.28
2019-05-12T07:15:14.429Z,97131.10
2019-05-12T07:17:49.838Z,97129.86
2019-05-12T07:20:17.687Z,97131.66
2019-05-12T07:22:48.635Z,97130.64
2019-05-12T07:25:16.478Z,97136.95
2019-05-12T07:27:53.647Z,97143.44
2019-05-12T07:30:16.712Z,97147.34
2019-05-12T07:32:45.476Z,97153.22
2019-05-12T07:35:14.767Z,97154.57
2019-05-12T07:37:45.558Z,97170.38
2019-05-12T07:40:14.114Z,97172.05
2019-05-12T07:42:43.847Z,97174.17
2019-05-12T07:45:20.692Z,97190.92
2019-05-12T07:47:44.798Z,97192.08
2019-05-12T07:50:16.142Z,97193.23
2019-05-12T07:52:44.189Z,97192.34
2019-05-12T07:55:14.780Z,97201.36
2019-05-12T07:57:52.957Z,97221.34
2019-05-12T08:00:21.130Z,97222.41
2019-05-12T08:02:44.536Z,97218.14
2019-05-12T08:05:19.442Z,97217.55
2019-05-12T08:07:44.583Z,97225.16
2019-05-12T08:10:19.934Z,97214.72
2019-05-12T08:12:44.494Z,97225.28
2019-05-12T08:15:14.051Z,97233.63
2019-05-12T08:17:44.124Z,97230.17
2019-05-12T08:20:13.558Z,97235.98
2019-05-12T08:22:43.813Z,97239.45
2019-05-12T08:25:13.473Z,97245.91
2019-05-12T08:27:45.122Z,97250.39
2019-05-12T08:30:13.788Z,97241.08
2019-05-12T08:32:44.308Z,97246.13
2019-05-12T08:35:13.922Z,97250.02
2019-05-12T08:37:44.104Z,97255.67
2019-05-12T08:40:15.396Z,97252.89
2019-05-12T08:42:43.809Z,97252.31
2019-05-12T08:45:15.292Z,97250.94
2019-05-12T08:47:44.082Z,97253.25
2019-05-12T08:50:13.654Z,97242.73
2019-05-12T08:52:44.191Z,97246.92
2019-05-12T08:55:16.630Z,97238.03
2019-05-12T08:57:48.969Z,97233.50
2019-05-12T09:00:13.569Z,97237.61
2019-05-12T09:02:46.101Z,97227.58
2019-05-12T09:05:14.293Z,97232.59
2019-05-12T09:07:43.656Z,97228.55
2019-05-12T09:10:14.323Z,97232.13
2019-05-12T09:12:44.178Z,97228.41
2019-05-12T09:15:13.585Z,97234.53
2019-05-12T09:17:49.074Z,97241.70
2019-05-12T09:20:13.704Z,97246.00
2019-05-12T09:22:43.226Z,97247.34
2019-05-12T09:25:14.139Z,97253.66
2019-05-12T09:27:45.669Z,97250.84
2019-05-12T09:30:14.164Z,97264.05
2019-05-12T09:32:45.441Z,97266.31
2019-05-12T09:35:14.391Z,97262.03
2019-05-12T09:37:44.094Z,97269.02
2019-05-12T09:40:14.955Z,97265.36
2019-05-12T09:42:44.053Z,97264.44
2019-05-12T09:45:13.788Z,97265.87
2019-05-12T09:47:43.601Z,97265.67
2019-05-12T09:50:18.268Z,97258.81
2019-05-12T09:52:44.072Z,97262.39
2019-05-12T09:55:14.888Z,97257.39
2019-05-12T09:57:45.119Z,97265.92
2019-05-12T10:00:13.939Z,97273.14
2019-05-12T10:02:43.671Z,97263.29
2019-05-12T10:05:14.453Z,97262.14
2019-05-12T10:07:44.555Z,97269.52
2019-05-12T10:10:14.292Z,97265.06
2019-05-12T10:12:46.251Z,97268.27
2019-05-12T10:15:18.747Z,97272.84
2019-05-12T10:17:44.127Z,97265.17
2019-05-12T10:20:13.702Z,97266.39
2019-05-12T10:22:43.726Z,97269.73
2019-05-12T10:25:14.463Z,97277.19
2019-05-12T10:27:44.332Z,97278.02
2019-05-12T10:30:17.047Z,97284.34
2019-05-12T10:32:43.817Z,97282.28
2019-05-12T10:35:20.823Z,97275.06
2019-05-12T10:37:47.164Z,97267.63
2019-05-12T10:40:15.626Z,97273.56
2019-05-12T10:42:46.220Z,97271.66
2019-05-12T10:45:18.952Z,97271.45
2019-05-12T10:47:44.679Z,97267.58
2019-05-12T10:50:14.354Z,97272.13
2019-05-12T10:52:44.001Z,97275.97
2019-05-12T10:55:13.426Z,97280.34
2019-05-12T10:57:43.918Z,97266.13
2019-05-12T11:00:19.674Z,97273.37
2019-05-12T11:02:45.073Z,97274.94
2019-05-12T11:05:21.107Z,97290.03
2019-05-12T11:07:43.911Z,97289.41
2019-05-12T11:10:19.161Z,97294.63
2019-05-12T11:12:44.147Z,97304.73
2019-05-12T11:15:13.593Z,97297.55
2019-05-12T11:17:53.388Z,97286.73
2019-05-12T11:20:25.167Z,97296.95
2019-05-12T11:22:54.314Z,97301.83
2019-05-12T11:25:24.620Z,97303.09
2019-05-12T11:27:54.910Z,97307.86
2019-05-12T11:30:23.868Z,97312.11
2019-05-12T11:32:54.120Z,97299.00
2019-05-12T11:35:23.680Z,97310.53
2019-05-12T11:37:53.888Z,97300.87
2019-05-12T11:40:23.934Z,97307.00
2019-05-12T11:42:59.096Z,97307.11
2019-05-12T11:45:24.219Z,97303.67
2019-05-12T11:47:59.164Z,97294.45
2019-05-12T11:50:23.115Z,97301.49
2019-05-12T11:52:52.310Z,97288.11
2019-05-12T11:55:21.310Z,97288.00
2019-05-12T11:57:51.113Z,97296.44
2019-05-12T12:00:21.360Z,97289.74
2019-05-12T12:02:49.840Z,97300.59
2019-05-12T12:05:18.409Z,97301.41
2019-05-12T12:07:51.350Z,97301.25
2019-05-12T12:10:17.160Z,97297.31
2019-05-12T12:12:49.262Z,97294.02
2019-05-12T12:15:20.377Z,97298.20
2019-05-12T12:17:46.577Z,97299.50
2019-05-12T12:20:22.561Z,97305.12
2019-05-12T12:22:48.425Z,97304.46
2019-05-12T12:25:23.420Z,97306.09
2019-05-12T12:27:53.760Z,97311.67
2019-05-12T12:30:23.606Z,97307.39
2019-05-12T12:32:58.769Z,97308.09
2019-05-12T12:35:23.378Z,97311.47
2019-05-12T12:37:53.925Z,97311.47
2019-05-12T12:40:22.205Z,97318.86
2019-05-12T12:42:50.705Z,97314.56
2019-05-12T12:45:20.967Z,97316.69
2019-05-12T12:47:49.467Z,97311.59
2019-05-12T12:50:20.220Z,97317.19
2019-05-12T12:52:48.948Z,97317.17
2019-05-12T12:55:17.587Z,97320.86
2019-05-12T12:57:50.574Z,97324.66
2019-05-12T13:00:31.774Z,97316.88
2019-05-12T13:02:49.365Z,97322.27
2019-05-12T13:05:17.984Z,97315.38
2019-05-12T13:07:46.444Z,97312.20
2019-05-12T13:10:15.111Z,97308.19
2019-05-12T13:12:43.913Z,97315.05
2019-05-12T13:15:14.454Z,97315.51
2019-05-12T13:17:44.750Z,97316.17
2019-05-12T13:20:13.856Z,97323.88
2019-05-12T13:22:44.393Z,97323.66
2019-05-12T13:25:14.301Z,97330.92
2019-05-12T13:27:42.884Z,97328.77
2019-05-12T13:30:19.747Z,97339.52
2019-05-12T13:32:44.168Z,97349.53
2019-05-12T13:35:16.642Z,97350.86
2019-05-12T13:37:43.466Z,97346.48
2019-05-12T13:40:12.187Z,97356.55
2019-05-12T13:42:40.753Z,97368.94
2019-05-12T13:45:13.175Z,97366.04
2019-05-12T13:47:40.274Z,97360.84
2019-05-12T13:50:13.436Z,97358.97
2019-05-12T13:52:39.799Z,97357.60
2019-05-12T13:55:08.339Z,97355.94
2019-05-12T13:57:36.836Z,97346.05
2019-05-12T14:00:10.904Z,97345.73
2019-05-12T14:02:38.943Z,97335.98
2019-05-12T14:05:11.406Z,97332.32
2019-05-12T14:07:43.525Z,97323.97
2019-05-12T14:10:13.862Z,97328.98
2019-05-12T14:12:43.982Z,97316.94
2019-05-12T14:15:14.234Z,97325.99
2019-05-12T14:17:43.504Z,97325.89
2019-05-12T14:20:15.717Z,97332.03
2019-05-12T14:22:44.810Z,97332.23
2019-05-12T14:25:15.100Z,97340.53
2019-05-12T14:27:44.325Z,97336.09
2019-05-12T14:30:14.535Z,97336.11
2019-05-12T14:32:44.010Z,97335.38
2019-05-12T14:35:12.899Z,97342.88
2019-05-12T14:37:45.834Z,97352.45
2019-05-12T14:40:13.434Z,97354.25
2019-05-12T14:42:44.169Z,97346.67
2019-05-12T14:45:13.770Z,97351.16
2019-05-12T14:47:43.734Z,97361.75
2019-05-12T14:50:14.061Z,97359.50
2019-05-12T14:52:43.946Z,97369.48
2019-05-12T14:55:13.880Z,97368.25
2019-05-12T14:57:42.555Z,97380.82
2019-05-12T15:00:17.383Z,97381.63
2019-05-12T15:02:43.725Z,97380.59
2019-05-12T15:05:14.038Z,97380.28
2019-05-12T15:07:51.280Z,97370.83
2019-05-12T15:10:14.315Z,97381.11
2019-05-12T15:12:44.212Z,97390.45
2019-05-12T15:15:15.643Z,97389.94
2019-05-12T15:17:44.436Z,97383.06
2019-05-12T15:20:13.890Z,97385.64
2019-05-12T15:22:51.259Z,97383.66
2019-05-12T15:25:14.492Z,97388.97
2019-05-12T15:27:46.122Z,97389.38
2019-05-12T15:30:22.844Z,97388.26
2019-05-12T15:32:44.067Z,97386.98
2019-05-12T15:35:13.864Z,97384.48
2019-05-12T15:37:43.644Z,97395.20
2019-05-12T15:40:14.546Z,97387.19
2019-05-12T15:42:45.142Z,97391.59
2019-05-12T15:45:16.653Z,97391.41
2019-05-12T15:47:44.589Z,97392.23
2019-05-12T15:50:14.622Z,97398.98
2019-05-12T15:52:45.618Z,97392.95
2019-05-12T15:55:13.899Z,97401.89
2019-05-12T15:57:44.037Z,97406.27
2019-05-12T16:00:17.016Z,97397.44
2019-05-12T16:02:44.604Z,97405.45
2019-05-12T16:05:14.522Z,97409.71
2019-05-12T16:07:44.197Z,97405.02
2019-05-12T16:10:14.442Z,97401.72
2019-05-12T16:12:43.726Z,97401.28
2019-05-12T16:15:17.250Z,97400.69
2019-05-12T16:17:44.121Z,97404.82
2019-05-12T16:20:14.262Z,97402.84
2019-05-12T16:22:45.052Z,97406.29
2019-05-12T16:25:15.294Z,97410.63
2019-05-12T16:27:44.400Z,97400.66
2019-05-12T16:30:14.018Z,97403.16
2019-05-12T16:32:47.597Z,97407.41
2019-05-12T16:35:14.523Z,97401.69
2019-05-12T16:37:44.243Z,97405.83
2019-05-12T16:40:13.805Z,97404.39
2019-05-12T16:42:48.139Z,97403.56
2019-05-12T16:45:14.341Z,97410.31
2019-05-12T16:47:44.664Z,97400.74
2019-05-12T16:50:15.926Z,97406.14
2019-05-12T16:52:45.338Z,97402.30
2019-05-12T16:55:14.450Z,97405.50
2019-05-12T16:57:51.469Z,97410.79
2019-05-12T17:00:15.415Z,97412.26
2019-05-12T17:02:51.966Z,97415.59
2019-05-12T17:05:20.243Z,97416.31
2019-05-12T17:07:44.661Z,97422.34
2019-05-12T17:10:16.660Z,97411.30
2019-05-12T17:12:43.943Z,97412.14
2019-05-12T17:15:15.035Z,97416.94
2019-05-12T17:17:44.689Z,97420.77
2019-05-12T17:20:14.207Z,97419.52
2019-05-12T17:22:45.678Z,97421.91
2019-05-12T17:25:15.499Z,97430.72
2019-05-12T17:27:44.778Z,97436.23
2019-05-12T17:30:14.016Z,97432.77
2019-05-12T17:32:57.194Z,97438.41
2019-05-12T17:35:14.657Z,97447.31
2019-05-12T17:37:43.856Z,97451.02
2019-05-12T17:40:15.453Z,97450.81
2019-05-12T17:42:44.107Z,97453.58
2019-05-12T17:45:15.766Z,97458.13
2019-05-12T17:47:44.435Z,97454.22
2019-05-12T17:50:13.866Z,97452.03
2019-05-12T17:52:44.856Z,97448.82
2019-05-12T17:55:14.699Z,97455.25
2019-05-12T17:57:43.989Z,97456.57
2019-05-12T18:00:14.493Z,97457.19
2019-05-12T18:02:43.988Z,97453.84
2019-05-12T18:05:15.594Z,97454.87
2019-05-12T18:07:44.725Z,97457.89
2019-05-12T18:10:13.834Z,97457.19
2019-05-12T18:12:45.215Z,97460.30
2019-05-12T18:15:15.010Z,97458.95
2019-05-12T18:17:45.268Z,97458.95
2019-05-12T18:20:14.615Z,97460.63
2019-05-12T18:22:44.928Z,97459.47
2019-05-12T18:25:14.584Z,97464.00
2019-05-12T18:27:50.362Z,97463.20
2019-05-12T18:30:18.627Z,97468.23
2019-05-12T18:32:44.851Z,97476.66
2019-05-12T18:35:13.871Z,97474.82
2019-05-12T18:37:42.451Z,97473.11
2019-05-12T18:40:14.572Z,97483.58
2019-05-12T18:42:42.650Z,97479.95
2019-05-12T18:45:17.371Z,97484.60
2019-05-12T18:47:44.012Z,97472.41
2019-05-12T18:50:14.082Z,97475.84
2019-05-12T18:52:45.592Z,97480.66
2019-05-12T18:55:13.360Z,97482.66
2019-05-12T18:57:46.310Z,97490.98
2019-05-12T19:00:19.757Z,97485.91
2019-05-12T19:02:51.087Z,97487.02
2019-05-12T19:05:30.035Z,97493.28
2019-05-12T19:07:49.087Z,97482.73
2019-05-12T19:10:17.683Z,97497.06
2019-05-12T19:12:46.241Z,97495.09
2019-05-12T19:15:19.513Z,97503.05
2019-05-12T19:17:45.962Z,97491.39
2019-05-12T19:20:14.989Z,97507.42
2019-05-12T19:22:49.631Z,97509.23
2019-05-12T19:25:19.347Z,97511.80
2019-05-12T19:27:49.958Z,97513.66
2019-05-12T19:30:19.346Z,97513.02
2019-05-12T19:32:47.637Z,97513.20
2019-05-12T19:35:20.350Z,97511.86
2019-05-12T19:37:46.418Z,97509.56
2019-05-12T19:40:17.636Z,97519.84
2019-05-12T19:42:45.373Z,97519.11
2019-05-12T19:45:21.128Z,97519.52
2019-05-12T19:47:44.735Z,97520.27
2019-05-12T19:50:18.163Z,97515.20
2019-05-12T19:52:44.369Z,97530.30
2019-05-12T19:55:13.993Z,97529.23
2019-05-12T19:57:44.254Z,97529.51
2019-05-12T20:00:14.061Z,97537.08
2019-05-12T20:02:42.649Z,97534.95
2019-05-12T20:05:16.722Z,97531.88
2019-05-12T20:07:44.405Z,97527.38
2019-05-12T20:10:13.868Z,97527.14
2019-05-12T20:12:43.670Z,97526.69
2019-05-12T20:15:15.075Z,97528.03
2019-05-12T20:17:44.717Z,97527.74
2019-05-12T20:20:17.731Z,97523.37
2019-05-12T20:22:44.564Z,97529.89
2019-05-12T20:25:14.593Z,97533.13
2019-05-12T20:27:44.538Z,97529.14
2019-05-12T20:30:20.832Z,97541.27
2019-05-12T20:32:46.369Z,97535.50
2019-05-12T20:35:15.105Z,97538.67
2019-05-12T20:37:52.641Z,97544.15
2019-05-12T20:40:14.177Z,97540.72
2019-05-12T20:43:05.330Z,97555.73
2019-05-12T20:45:13.966Z,97551.50
2019-05-12T20:47:45.179Z,97560.05
2019-05-12T20:50:14.887Z,97554.52
2019-05-12T20:52:46.439Z,97556.25
2019-05-12T20:55:14.521Z,97563.40
2019-05-12T20:57:51.824Z,97563.59
2019-05-12T21:00:14.264Z,97563.08
2019-05-12T21:02:44.276Z,97565.17
2019-05-12T21:05:19.189Z,97560.00
2019-05-12T21:07:44.809Z,97553.77
2019-05-12T21:10:14.967Z,97556.47
2019-05-12T21:12:49.920Z,97558.70
2019-05-12T21:15:20.180Z,97556.01
2019-05-12T21:17:52.035Z,97556.66
2019-05-12T21:20:16.766Z,97557.81
2019-05-12T21:22:45.553Z,97557.30
2019-05-12T21:25:14.142Z,97560.70
2019-05-12T21:27:47.368Z,97560.11
2019-05-12T21:30:15.216Z,97558.71
2019-05-12T21:32:47.171Z,97558.34
2019-05-12T21:35:22.018Z,97561.87
2019-05-12T21:37:48.320Z,97556.61
2019-05-12T21:40:15.968Z,97566.10
2019-05-12T21:42:44.866Z,97565.86
2019-05-12T21:45:14.560Z,97566.36
2019-05-12T21:47:44.431Z,97569.33
2019-05-12T21:50:14.002Z,97567.84
2019-05-12T21:52:44.642Z,97564.49
2019-05-12T21:55:21.203Z,97563.23
2019-05-12T21:57:43.859Z,97555.98
2019-05-12T22:00:34.119Z,97559.55
2019-05-12T22:03:07.388Z,97560.25
2019-05-12T22:05:48.130Z,97557.19
2019-05-12T22:08:06.510Z,97554.63
2019-05-12T22:10:34.813Z,97553.53
2019-05-12T22:13:07.382Z,97549.89
2019-05-12T22:15:33.864Z,97545.84
2019-05-12T22:18:04.831Z,97548.84
2019-05-12T22:20:34.184Z,97546.41
2019-05-12T22:23:09.591Z,97539.10
2019-05-12T22:25:34.513Z,97545.63
2019-05-12T22:28:05.432Z,97538.19
2019-05-12T22:30:34.978Z,97540.37
2019-05-12T22:33:08.313Z,97541.20
2019-05-12T22:35:34.026Z,97536.77
2019-05-12T22:38:09.409Z,97541.08
2019-05-12T22:40:32.700Z,97533.19
2019-05-12T22:43:03.797Z,97535.19
2019-05-12T22:45:36.152Z,97531.47
2019-05-12T22:48:04.114Z,97529.10
2019-05-12T22:50:33.115Z,97525.86
2019-05-12T22:53:04.091Z,97512.09
2019-05-12T22:55:35.067Z,97509.59
2019-05-12T22:58:02.595Z,97518.00
2019-05-12T23:00:33.895Z,97514.28
2019-05-12T23:03:08.604Z,97518.00
2019-05-12T23:05:31.727Z,97510.98
2019-05-12T23:08:05.786Z,97516.45
2019-05-12T23:10:30.397Z,97508.41
2019-05-12T23:13:01.842Z,97508.23
2019-05-12T23:15:29.232Z,97498.66
2019-05-12T23:17:57.724Z,97506.17
2019-05-12T23:20:30.996Z,97498.17
2019-05-12T23:22:56.470Z,97493.66
2019-05-12T23:25:24.935Z,97494.55
2019-05-12T23:27:54.233Z,97493.41
2019-05-12T23:30:24.370Z,97488.21
2019-05-12T23:32:53.157Z,97491.20
2019-05-12T23:35:21.735Z,97492.78
2019-05-12T23:37:50.194Z,97500.56
2019-05-12T23:40:18.780Z,97492.08
2019-05-12T23:42:47.336Z,97492.20
2019-05-12T23:45:15.927Z,97497.91
2019-05-12T23:47:44.417Z,97494.23
2019-05-12T23:50:14.286Z,97487.65
2019-05-12T23:52:44.012Z,97493.10
2019-05-12T23:55:13.810Z,97484.66
2019-05-12T23:57:44.335Z,97487.80
